地図

経路データ

SID SEASON NUMBER BASIN SUBBASIN NAME ISO_TIME NATURE LAT LON WMO_WIND WMO_PRES WMO_AGENCY TRACK_TYPE DIST2LAND LANDFALL IFLAG USA_AGENCY USA_ATCF_ID USA_LAT USA_LON USA_RECORD USA_STATUS USA_WIND USA_PRES USA_SSHS USA_R34_NE USA_R34_SE USA_R34_SW USA_R34_NW USA_R50_NE USA_R50_SE USA_R50_SW USA_R50_NW USA_R64_NE USA_R64_SE USA_R64_SW USA_R64_NW USA_POCI USA_ROCI USA_RMW USA_EYE TOKYO_LAT TOKYO_LON TOKYO_GRADE TOKYO_WIND TOKYO_PRES TOKYO_R50_DIR TOKYO_R50_LONG TOKYO_R50_SHORT TOKYO_R30_DIR TOKYO_R30_LONG TOKYO_R30_SHORT TOKYO_LAND CMA_LAT CMA_LON CMA_CAT CMA_WIND CMA_PRES HKO_LAT HKO_LON HKO_CAT HKO_WIND HKO_PRES NEWDELHI_LAT NEWDELHI_LON NEWDELHI_GRADE NEWDELHI_WIND NEWDELHI_PRES NEWDELHI_CI NEWDELHI_DP NEWDELHI_POCI REUNION_LAT REUNION_LON REUNION_TYPE REUNION_WIND REUNION_PRES REUNION_TNUM REUNION_CI REUNION_RMW REUNION_R34_NE REUNION_R34_SE REUNION_R34_SW REUNION_R34_NW REUNION_R50_NE REUNION_R50_SE REUNION_R50_SW REUNION_R50_NW REUNION_R64_NE REUNION_R64_SE REUNION_R64_SW REUNION_R64_NW BOM_LAT BOM_LON BOM_TYPE BOM_WIND BOM_PRES BOM_TNUM BOM_CI BOM_RMW BOM_R34_NE BOM_R34_SE BOM_R34_SW BOM_R34_NW BOM_R50_NE BOM_R50_SE BOM_R50_SW BOM_R50_NW BOM_R64_NE BOM_R64_SE BOM_R64_SW BOM_R64_NW BOM_ROCI BOM_POCI BOM_EYE BOM_POS_METHOD BOM_PRES_METHOD NADI_LAT NADI_LON NADI_CAT NADI_WIND NADI_PRES WELLINGTON_LAT WELLINGTON_LON WELLINGTON_WIND WELLINGTON_PRES DS824_LAT DS824_LON DS824_STAGE DS824_WIND DS824_PRES TD9636_LAT TD9636_LON TD9636_STAGE TD9636_WIND TD9636_PRES TD9635_LAT TD9635_LON TD9635_WIND TD9635_PRES TD9635_ROCI NEUMANN_LAT NEUMANN_LON NEUMANN_CLASS NEUMANN_WIND NEUMANN_PRES MLC_LAT MLC_LON MLC_CLASS MLC_WIND MLC_PRES USA_GUST BOM_GUST BOM_GUST_PER REUNION_GUST REUNION_GUST_PER USA_SEAHGT USA_SEARAD_NE USA_SEARAD_SE USA_SEARAD_SW USA_SEARAD_NW STORM_SPEED STORM_DIR
1977044S09099 1977 24 SI WA IO:JACK 1977-02-13 00:00:00 TS -9.00000 99.4000 25 1004 bom main 635 635 ______O_______ -1 -9.00000 99.4000 20 25 1004 1.50000 6 252
1977044S09099 1977 24 SI WA IO:JACK 1977-02-13 03:00:00 TS -9.09377 99.1000 25 1004 bom main 664 664 ______O_______ -1 -9.10000 99.1000 20 25 1004 1.50000 6 251
1977044S09099 1977 24 SI WA IO:JACK 1977-02-13 06:00:00 TS -9.20000 98.8000 25 1003 bom main 694 694 ______O_______ -1 -9.20000 98.8000 20 25 1003 2.00000 6 249
1977044S09099 1977 24 SI WA IO:JACK 1977-02-13 09:00:00 TS -9.32499 98.5000 25 1003 bom main 724 724 ______O_______ -1 -9.30000 98.5000 20 25 1003 2.00000 6 243
1977044S09099 1977 24 SI WA IO:JACK 1977-02-13 12:00:00 TS -9.45555 98.3000 25 1002 bom main 756 756 ______O_____O_ -1 -9.50000 98.2000 20 25 1002 2.00000 -9.10000 99.1000 TC 25 1003 5 243
1977044S09099 1977 24 SI WA IO:JACK 1977-02-13 15:00:00 TS -9.53250 98.0800 25 1002 bom main 771 771 ______O_____P_ -1 -9.60000 97.9000 20 25 1002 2.00000 -9.26255 98.8001 TC 25 1002 5 250
1977044S09099 1977 24 SI WA IO:JACK 1977-02-13 18:00:00 TS -9.61818 97.8455 25 1001 bom main 800 800 ______O_____O_ -1 -9.70000 97.6000 20 25 1001 2.00000 -9.40000 98.5000 TC 25 1002 5 249
1977044S09099 1977 24 SI WA IO:JACK 1977-02-13 21:00:00 TS -9.71666 97.5975 25 1001 bom main 823 823 ______O_____P_ -1 -9.80000 97.3000 20 25 1001 2.00000 -9.49997 98.2000 TC 25 1001 6 245
1977044S09099 1977 24 SI WA IO:JACK 1977-02-14 00:00:00 TS -9.86667 97.3000 30 1000 bom main 861 861 ______O_____O_ -1 -10.0000 97.0000 20 30 1000 2.50000 2.50000 -9.60000 97.9000 TC 25 1001 6 244
1977044S09099 1977 24 SI WA IO:JACK 1977-02-14 03:00:00 TS -9.98332 97.0450 30 999 bom main 891 891 ______O_____P_ -1 -10.1000 96.8000 20 30 999 2.50000 -9.74999 97.5925 TC 27 1000 6 246
1977044S09099 1977 24 SI WA IO:JACK 1977-02-14 06:00:00 TS -10.1000 96.7667 30 998 bom main 914 914 ______O_____O_ -1 -10.2000 96.5000 20 30 998 2.50000 -9.90000 97.3000 TC 30 1000 6 247
1977044S09099 1977 24 SI WA IO:JACK 1977-02-14 09:00:00 TS -10.2166 96.5000 30 997 bom main 944 944 ______O_____P_ -1 -10.3000 96.2000 20 30 997 2.50000 -9.99996 97.0424 TC 32 999 6 242
1977044S09099 1977 24 SI WA IO:JACK 1977-02-14 12:00:00 TS -10.3667 96.2667 35 996 bom main 976 976 ______O_____O_ -1 -10.5000 96.0000 21 35 996 3.00000 -10.1000 96.8000 TC 35 998 6 242
1977044S09099 1977 24 SI WA IO:JACK 1977-02-14 15:00:00 TS -10.4858 95.9833 40 995 bom main 1006 1006 ______O_____P_ -1 -10.6000 95.7000 21 40 995 3.00000 -10.2500 96.5575 TC 35 997 6 247
1977044S09099 1977 24 SI WA IO:JACK 1977-02-14 18:00:00 TS -10.6000 95.7000 45 994 bom main 1037 1037 ______O_____O_ -1 -10.7000 95.4000 21 45 994 3.00000 -10.4000 96.3000 TC 35 996 6 248
1977044S09099 1977 24 SI WA IO:JACK 1977-02-14 21:00:00 TS -10.6975 95.4616 50 992 bom main 1061 1061 ______O_____P_ -1 -10.8000 95.2000 21 50 992 3.50000 -10.5075 96.0000 TC 37 995 5 246
1977044S09099 1977 24 SI WA IO:JACK 1977-02-15 00:00:00 TS -10.8000 95.2333 50 992 bom main 1092 1092 ______O_____O_ -1 -10.9000 95.0000 21 50 992 3.50000 3.50000 -10.6000 95.7000 TC 40 994 5 240
1977044S09099 1977 24 SI WA IO:JACK 1977-02-15 03:00:00 TS -10.9567 95.0117 50 992 bom main 1123 1123 ______O_____P_ -1 -11.1000 94.8000 21 50 992 3.50000 -10.6850 95.4350 TC 42 993 5 232
1977044S09099 1977 24 SI WA IO:JACK 1977-02-15 06:00:00 TS -11.1333 94.8000 50 992 bom main 1145 1145 ______O_____O_ -1 -11.3000 94.6000 21 50 992 3.50000 -10.8000 95.2000 TC 45 992 5 228
1977044S09099 1977 24 SI WA IO:JACK 1977-02-15 09:00:00 TS -11.3233 94.5975 50 992 bom main 1174 1174 ______O_____P_ -1 -11.5000 94.4000 21 50 992 3.50000 -10.9850 94.9925 TC 45 992 6 224
1977044S09099 1977 24 SI WA IO:JACK 1977-02-15 12:00:00 TS -11.5333 94.4000 50 992 bom main 1204 1204 ______O_____O_ -1 -11.7000 94.2000 21 50 992 3.50000 -11.2000 94.8000 TC 45 992 6 219
1977044S09099 1977 24 SI WA IO:JACK 1977-02-15 15:00:00 TS -11.7950 94.2025 50 992 bom main 1244 1244 ______O_____P_ -1 -12.0000 94.0000 21 50 992 3.50000 -11.3925 94.6000 TC 45 992 7 216
1977044S09099 1977 24 SI WA IO:JACK 1977-02-15 18:00:00 TS -12.0667 94.0000 50 992 bom main 1283 1283 ______O_____O_ -1 -12.3000 93.8000 21 50 992 3.50000 -11.6000 94.4000 TC 45 992 6 219
1977044S09099 1977 24 SI WA IO:JACK 1977-02-15 21:00:00 TS -12.2975 93.7883 50 992 bom main 1313 1313 ______O_____P_ -1 -12.5000 93.6000 21 50 992 3.50000 -11.8425 94.2000 TC 45 992 7 222
1977044S09099 1977 24 SI WA IO:JACK 1977-02-16 00:00:00 TS -12.5667 93.5333 50 992 bom main 1358 1358 ______O_____O_ -1 -12.8000 93.3000 21 50 992 3.50000 3.50000 -12.1000 94.0000 TC 45 992 7 226
1977044S09099 1977 24 SI WA IO:JACK 1977-02-16 03:00:00 TS -12.8167 93.2419 50 992 bom main 1393 1393 ______O_____P_ -1 -13.1000 93.0000 21 50 992 3.50000 -12.3424 93.8149 TC 45 992 7 231
1977044S09099 1977 24 SI WA IO:JACK 1977-02-16 06:00:00 TS -13.0286 92.9571 50 991 bom main 1423 1423 ______O___O_O_ -1 -13.4000 92.7000 21 50 991 3.50000 -12.4000 92.7000 1 -12.6000 93.6000 TC 45 992 7 236
1977044S09099 1977 24 SI WA IO:JACK 1977-02-16 09:00:00 TS -13.2025 92.6592 50 991 bom main 1458 1458 ______O___P_P_ -1 -13.7000 92.4000 21 50 991 3.50000 -12.2598 92.2948 1 -12.9000 93.3150 TC 45 991 7 248
1977044S09099 1977 24 SI WA IO:JACK 1977-02-16 12:00:00 TS -13.2907 92.2992 50 990 bom main 1489 1489 ______O___P_O_ -1 -13.9000 92.1000 21 50 990 3.50000 -12.1355 91.8919 1 -13.2000 93.0000 TC 45 991 9 261
1977044S09099 1977 24 SI WA IO:JACK 1977-02-16 15:00:00 TS -13.3420 91.7866 50 990 bom main 1516 1516 ______O___P_P_ -1 -13.9000 91.4000 21 50 990 3.50000 -12.0434 91.4931 1 -13.4798 92.7374 TC 45 990 10 265
1977044S09099 1977 24 SI WA IO:JACK 1977-02-16 18:00:00 TS -13.3750 91.2250 50 990 bom main 1561 1561 ______O___O_O_ -1 -13.9000 90.7000 21 50 990 3.50000 -12.0000 91.1000 1 -13.7000 92.4000 TC 45 990 11 265
1977044S09099 1977 24 SI WA IO:JACK 1977-02-16 21:00:00 TS -13.4491 90.6391 50 990 bom main 1597 1597 ______O___P_P_ -1 -14.0000 90.0000 21 50 990 3.50000 -12.0164 90.7140 1 -13.8299 91.9099 TC 45 990 11 264
1977044S09099 1977 24 SI WA IO:JACK 1977-02-17 00:00:00 TS -13.4956 90.0588 50 990 bom main 1639 1639 ______O___P_O_ -1 -14.0000 89.3000 21 50 990 3.50000 -12.0823 90.3353 1 -13.9000 91.3000 TC 45 990 10 265
1977044S09099 1977 24 SI MM IO:JACK 1977-02-17 03:00:00 TS -13.5386 89.6291 50 990 bom main 1672 1672 ______O___P_P_ -1 -14.0000 89.0000 21 50 990 3.50000 3.50000 -12.1820 89.9639 1 -13.9653 90.5775 TC 45 990 8 264
1977044S09099 1977 24 SI MM IO:JACK 1977-02-17 06:00:00 TS -13.5750 89.2750 50 988 bom main 1701 1701 ______O___O_O_ -1 -14.0000 88.8000 21 50 988 3.50000 -12.3000 89.6000 1 -14.0000 89.9000 TC 45 990 6 264
1977044S09099 1977 24 SI MM IO:JACK 1977-02-17 09:00:00 TS -13.6064 88.9807 main 1721 1721 ______P___P_P_ -1 -14.0000 88.6548 21 50 988 -12.4186 89.2429 1 -14.0072 89.4325 TC 45 990 6 264
1977044S09099 1977 24 SI MM IO:JACK 1977-02-17 09:50:00 TS -13.6150 88.9034 50 988 bom main 1728 1728 ______O___P_P_ -1 -14.0000 88.6000 21 50 988 3.50000 -12.4543 89.1450 1 -14.0056 89.3298 TC 45 990 6 264
1977044S09099 1977 24 SI MM IO:JACK 1977-02-17 12:00:00 TS -13.6374 88.6982 50 987 bom main 1743 1743 ______O___P_O_ -1 -14.0000 88.4000 21 50 987 3.50000 -12.5498 88.8926 1 -14.0000 89.1000 TC 45 990 5 263
1977044S09099 1977 24 SI MM IO:JACK 1977-02-17 15:00:00 TS -13.6721 88.4471 50 987 bom main 1772 1772 ______O___P_P_ -1 -14.0000 88.2000 21 50 987 3.50000 -12.6811 88.5460 1 -13.9999 88.8200 TC 45 990 5 263
1977044S09099 1977 24 SI MM IO:JACK 1977-02-17 18:00:00 TS -13.7000 88.2000 50 986 bom main 1787 1787 ______O___O_O_ -1 -14.0000 88.0000 21 50 986 3.50000 -12.8000 88.2000 1 -14.0000 88.6000 TC 45 990 5 268
1977044S09099 1977 24 SI MM IO:JACK 1977-02-17 21:00:00 TS -13.6897 87.9151 50 986 bom main 1809 1809 ______O___P_P_ -1 -13.9000 87.7000 21 50 986 3.50000 -12.9013 87.8581 1 -14.0074 88.4075 TC 45 990 6 270
1977044S09099 1977 24 SI MM IO:JACK 1977-02-18 00:00:00 TS -13.6968 87.5787 50 985 bom main 1831 1831 ______O___P_O_ -1 -13.9000 87.3000 21 50 985 3.50000 -12.9872 87.5150 1 -14.0000 88.2000 TC 45 990 7 272
1977044S09099 1977 24 SI MM IO:JACK 1977-02-18 03:00:00 TS -13.6619 87.1815 50 985 bom main 1861 1861 ______O___P_P_ -1 -13.9000 86.8000 21 50 985 3.50000 3.50000 -13.0544 87.1644 1 -13.9499 87.9374 TC 45 990 9 276
1977044S09099 1977 24 SI MM IO:JACK 1977-02-18 06:00:00 TS -13.6000 86.6950 50 984 bom main 1892 1892 O____OO__OO_O_ jtwc_sh SH141977 -13.1000 86.8000 -1 -13.5000 85.5000 2 9.90000 -13.9000 86.3000 21 50 984 3.50000 -13.1000 86.8000 TC 25 -13.1000 86.8000 1 -13.9000 87.6000 TC 45 990 10 276
1977044S09099 1977 24 SI MM IO:JACK 1977-02-18 09:00:00 TS -13.5596 86.1915 50 984 bom main 1931 1931 P____PO__PP_P_ SH141977 -13.0976 86.4000 -1 -13.5152 85.0949 2 -13.9000 85.7000 21 50 984 3.50000 -13.0976 86.4000 TC 25 -13.1255 86.4143 1 -13.8925 87.1800 TC 47 989 10 274
1977044S09099 1977 24 SI MM IO:JACK 1977-02-18 12:00:00 TS -13.5315 85.7138 50 983 bom main 1964 1964 O____OO__OP_O_ jtwc_sh SH141977 -13.1000 86.0000 -1 -13.6000 84.7000 99 9.90000 -13.9000 85.2000 21 50 983 3.50000 -13.1000 86.0000 TC 25 -13.1299 86.0149 1 -13.9000 86.7000 TC 50 988 9 271
1977044S09099 1977 24 SI MM IO:JACK 1977-02-18 15:00:00 TS -13.5417 85.2458 50 983 bom main 2005 2005 P____PO__PP_P_ SH141977 -13.1074 85.6000 -1 -13.7924 84.3151 99 -13.9000 84.7000 21 50 983 3.50000 -13.1074 85.6000 TC 25 -13.1193 85.6080 1 -13.9074 86.2150 TC 52 987 9 269
1977044S09099 1977 24 SI MM IO:JACK 1977-02-18 18:00:00 TS -13.5429 84.8000 55 988 bom main 2039 2039 O____OO__OO_O_ jtwc_sh SH141977 -13.1000 85.2000 -1 -14.0000 83.9000 99 9.90000 -13.8000 84.2000 21 55 988 4.00000 -13.1000 85.2000 TC 25 -13.1000 85.2000 1 -13.9000 85.7000 TC 55 986 9 271
1977044S09099 1977 24 SI MM IO:JACK 1977-02-18 21:00:00 TS -13.5325 84.3487 55 981 bom main 2081 2081 P____PO__PP_P_ SH141977 -13.0499 84.7999 -1 -14.1450 83.4076 99 -13.8000 83.7000 21 55 981 4.00000 -13.0499 84.7999 TC 25 -13.0735 84.8283 1 -13.8500 85.1424 TC 55 985 9 273
1977044S09099 1977 24 SI MM IO:JACK 1977-02-19 00:00:00 TS -13.5041 83.9209 main 2115 2115 O____OP__OP_O_ jtwc_sh SH141977 -13.0000 84.4000 -1 -14.2000 82.9000 99 9.90000 -13.7686 83.3313 21 55 980 -13.0000 84.4000 TC 25 -13.0417 84.4522 1 -13.8000 84.6000 TC 55 984 8 274
1977044S09099 1977 24 SI MM IO:JACK 1977-02-19 03:00:00 TS -13.4721 83.5145 55 980 bom main 2150 2150 P____PO__PP_P_ SH141977 -12.9923 84.0225 -1 -14.1376 82.3973 99 -13.7000 83.0000 21 55 980 4.00000 4.00000 -12.9923 84.0225 TC 30 -13.0140 84.0501 1 -13.7999 84.1276 TC 57 982 8 275
1977044S09099 1977 24 SI MM IO:JACK 1977-02-19 06:00:00 TS -13.4286 83.1000 60 979 bom main 2178 2174 O____OO__OO_O_ jtwc_sh SH141977 -13.0000 83.6000 -1 -14.0000 82.0000 3 9.90000 -13.6000 82.6000 21 60 979 4.00000 -13.0000 83.6000 TC 35 -13.0000 83.6000 2 -13.8000 83.7000 TC 60 981 8 277
1977044S09099 1977 24 SI MM IO:JACK 1977-02-19 09:00:00 TS -13.3772 82.6733 60 978 bom main 2174 2159 P____PO__PP_P_ SH141977 -12.9925 83.0799 -1 -13.8873 81.8051 3 -13.5000 82.2000 21 60 978 4.00000 -12.9925 83.0799 TC 35 -12.9987 83.0630 2 -13.7649 83.2850 TC 62 980 8 278
1977044S09099 1977 24 SI MM IO:JACK 1977-02-19 12:00:00 TS -13.3161 82.2400 65 977 bom main 2158 2144 O____OO__OP_O_ jtwc_sh SH141977 -13.0000 82.5000 -1 -13.7000 81.7000 99 9.90000 -13.4000 81.8000 40 65 977 4.50000 -13.0000 82.5000 TC 35 -13.0129 82.4798 2 -13.7000 82.9000 TC 65 979 9 279
1977044S09099 1977 24 SI MM IO:JACK 1977-02-19 15:00:00 TS -13.2390 81.8006 70 977 bom main 2144 2141 P____PO__PP_P_ SH141977 -13.0350 81.9000 -1 -13.3500 81.5574 99 -13.3000 81.4000 40 70 977 4.50000 -13.0350 81.9000 TC 35 -13.0456 81.8817 2 -13.6074 82.5500 TC 65 978 8 280
1977044S09099 1977 24 SI MM IO:JACK 1977-02-19 18:00:00 TS -13.1692 81.3846 70 976 bom main 2141 2129 O____OO__OO_O_ jtwc_sh SH141977 -13.1000 81.3000 -1 -13.0000 81.4000 99 9.90000 -13.2000 81.0000 40 70 976 4.50000 -13.1000 81.3000 TC 35 -13.1000 81.3000 2 -13.5000 82.2000 TC 65 977 8 277
1977044S09099 1977 24 SI MM IO:JACK 1977-02-19 21:00:00 TS -13.1440 80.9607 70 975 bom main 2129 2128 P____PO__PP_P_ SH141977 -13.1924 80.7275 -1 -12.8050 81.2225 99 -13.1000 80.5000 40 70 975 4.50000 -13.1924 80.7275 TC 35 -13.1742 80.7542 2 -13.3999 81.8225 TC 65 976 8 271
1977044S09099 1977 24 SI MM IO:JACK 1977-02-20 00:00:00 TS -13.1581 80.5514 70 975 bom main 2139 2139 O____OO__OP_O_ jtwc_sh SH141977 -13.3000 80.2000 -1 -12.7000 81.0000 99 9.90000 -13.0000 80.0000 40 70 975 4.50000 4.50000 -13.3000 80.2000 TC 35 -13.2698 80.2327 2 -13.3000 81.4000 TC 65 976 8 267
1977044S09099 1977 24 SI MM IO:JACK 1977-02-20 03:00:00 TS -13.1865 80.1763 main 2140 2140 P____P___PP_P_ SH141977 -13.3924 79.7199 -1 -12.6350 80.7225 99 -13.3924 79.7199 TC 35 -13.3805 79.7448 2 -13.1320 80.9744 TC 67 975 8 264
1977044S09099 1977 24 SI MM IO:JACK 1977-02-20 06:00:00 TS -13.2400 79.7400 main 2142 2142 O____O___OO_O_ jtwc_sh SH141977 -13.5000 79.3000 -1 -12.6000 80.4000 3 9.90000 -13.5000 79.3000 TC 35 -13.5000 79.3000 2 -13.1000 80.4000 TC 70 975 9 258
1977044S09099 1977 24 SI MM IO:JACK 1977-02-20 09:00:00 TS -13.3725 79.2619 main 2167 2167 P____P___PP_P_ SH141977 -13.6499 78.9350 -1 -12.5125 80.0499 3 -13.6499 78.9350 TC 35 -13.6295 78.9109 2 -13.4209 79.4786 TC 70 10 252
1977044S09099 1977 24 SI MM IO:JACK 1977-02-20 12:00:00 TS -13.5329 78.8125 reunion main 2182 2182 O____O___OP_O_ jtwc_sh SH141977 -13.8000 78.6000 -1 -12.5000 79.7000 99 9.90000 -13.8000 78.6000 TC 35 -13.7643 78.5625 2 -13.8000 78.6000 TC 70 8 249
1977044S09099 1977 24 SI MM IO:JACK 1977-02-20 15:00:00 TS -13.6688 78.4555 main 2208 2208 P____P___PP_P_ SH141977 -13.9149 78.2500 -1 -12.6775 79.3777 99 -13.9149 78.2500 TC 35 -13.8920 78.2328 2 -13.9444 78.1671 TC 67 7 249
1977044S09099 1977 24 SI MM IO:JACK 1977-02-20 18:00:00 TS -13.7800 78.1400 reunion main 2224 2224 O____O___OO_O_ jtwc_sh SH141977 -14.0000 77.9000 -1 -12.9000 79.1000 99 9.90000 -14.0000 77.9000 TC 35 -14.0000 77.9000 2 -14.0000 77.9000 TC 65 6 254
1977044S09099 1977 24 SI MM IO:JACK 1977-02-20 21:00:00 TS -13.8457 77.8249 main 2228 2211 P____P___PP_P_ SH141977 -14.0574 77.5574 -1 -12.9849 78.8998 99 -14.0574 77.5574 TC 35 -14.0712 77.5522 2 -14.0574 77.5574 TC 62 6 259
1977044S09099 1977 24 SI MM IO:JACK 1977-02-21 00:00:00 TS -13.9044 77.4989 reunion main 2211 2176 O____O___OP_O_ jtwc_sh SH141977 -14.1000 77.2000 -1 -13.1000 78.7000 99 9.90000 -14.1000 77.2000 TC 35 -14.1219 77.1947 2 -14.1000 77.2000 TC 60 7 257
1977044S09099 1977 24 SI MM IO:JACK 1977-02-21 03:00:00 TS -14.0008 77.1454 main 2166 2132 P____P___PP_P_ SH141977 -14.1499 76.8225 -1 -13.3924 78.4451 99 -14.1499 76.8225 TC 50 -14.1617 76.8148 2 -14.1499 76.8225 TC 62 8 255
1977044S09099 1977 24 SI MM IO:JACK 1977-02-21 06:00:00 TS -14.1000 76.7400 reunion main 2122 2078 O____O___OO_O_ jtwc_sh SH141977 -14.2000 76.4000 -1 -13.7000 78.1000 4 9.90000 -14.2000 76.4000 TC 65 -14.2000 76.4000 4 -14.2000 76.4000 TC 65 9 258
1977044S09099 1977 24 SI MM IO:JACK 1977-02-21 09:00:00 TS -14.1775 76.2622 main 2078 2028 P____P___PP_P_ SH141977 -14.2500 75.9150 -1 -13.8876 77.6300 4 -14.2500 75.9150 TC 65 -14.2500 75.9359 4 -14.2500 75.9150 TC 65 10 262
1977044S09099 1977 24 SI MM IO:JACK 1977-02-21 12:00:00 TS -14.2400 75.7475 reunion main 2018 1974 O____O___OP_O_ jtwc_sh SH141977 -14.3000 75.4000 -1 -14.0000 77.1000 99 9.90000 -14.3000 75.4000 TC 65 -14.3000 75.4374 4 -14.3000 75.4000 TC 65 10 263
1977044S09099 1977 24 SI MM IO:JACK 1977-02-21 15:00:00 TS -14.2929 75.2425 main 1964 1924 P____P___PP_P_ SH141977 -14.3499 74.9000 -1 -14.0649 76.5999 99 -14.3499 74.9000 TC 65 -14.3500 74.9202 4 -14.3499 74.8925 TC 67 10 264
1977044S09099 1977 24 SI MM IO:JACK 1977-02-21 18:00:00 TS -14.3400 74.7400 reunion main 1914 1870 O____O___OO_O_ jtwc_sh SH141977 -14.4000 74.4000 -1 -14.1000 76.1000 99 9.90000 -14.4000 74.4000 TC 65 -14.4000 74.4000 4 -14.4000 74.4000 TC 70 10 264
1977044S09099 1977 24 SI MM IO:JACK 1977-02-21 21:00:00 TS -14.3898 74.2442 main 1860 1820 P____P___PP_P_ SH141977 -14.4499 73.9000 -1 -14.1574 75.6000 99 -14.4499 73.9000 TC 65 -14.4420 73.8634 4 -14.4498 73.9575 TC 70 10 264
1977044S09099 1977 24 SI MM IO:JACK 1977-02-22 00:00:00 TS -14.4371 73.7465 reunion main 1811 1767 O____O___OP_O_ jtwc_sh SH141977 -14.5000 73.4000 -1 -14.2000 75.1000 99 9.90000 -14.5000 73.4000 TC 65 -14.4853 73.3324 4 -14.5000 73.5000 TC 70 10 265
1977044S09099 1977 24 SI MM IO:JACK 1977-02-22 03:00:00 TS -14.4772 73.2250 main 1757 1717 P____P___PP_P_ SH141977 -14.5425 72.8775 -1 -14.2148 74.6075 99 -14.5425 72.8775 TC 65 -14.5359 72.8353 4 -14.5502 72.9275 TC 72 10 265
1977044S09099 1977 24 SI MM IO:JACK 1977-02-22 06:00:00 TS -14.5200 72.7400 reunion main 1708 1674 O____O___OO_O_ jtwc_sh SH141977 -14.6000 72.4000 -1 -14.2000 74.1000 4 9.90000 -14.6000 72.4000 TC 65 -14.6000 72.4000 4 -14.6000 72.4000 TC 75 9 264
1977044S09099 1977 24 SI MM IO:JACK 1977-02-22 09:00:00 TS -14.5693 72.3334 main 1664 1634 P____P___PP_P_ SH141977 -14.6924 72.0050 -1 -14.1500 73.5499 4 -14.6924 72.0050 TC 65 -14.6770 72.0521 4 -14.6348 72.0549 TC 75 7 261
1977044S09099 1977 24 SI MM IO:JACK 1977-02-22 12:00:00 TS -14.6339 71.9935 reunion main 1634 1600 O____O___OP_O_ jtwc_sh SH141977 -14.8000 71.7000 -1 -14.1000 73.0000 99 9.90000 -14.8000 71.7000 TC 65 -14.7693 71.7674 4 -14.7000 71.8000 TC 75 6 257
1977044S09099 1977 24 SI MM IO:JACK 1977-02-22 15:00:00 TS -14.7148 71.7043 main 1600 1576 P____P___PP_P_ SH141977 -14.8924 71.4774 -1 -14.0773 72.4999 99 -14.8924 71.4774 TC 65 -14.8771 71.5240 4 -14.8349 71.5425 TC 77 6 251
1977044S09099 1977 24 SI MM IO:JACK 1977-02-22 18:00:00 TS -14.8200 71.4400 reunion main 1567 1542 O____O___OO_O_ jtwc_sh SH141977 -15.0000 71.3000 -1 -14.1000 72.0000 99 9.90000 -15.0000 71.3000 TC 65 -15.0000 71.3000 4 -15.0000 71.3000 TC 80 6 247
1977044S09099 1977 24 SI MM IO:JACK 1977-02-22 21:00:00 TS -14.9389 71.1568 main 1542 1504 P____P___PP_P_ SH141977 -15.1425 71.1075 -1 -14.1325 71.4497 99 -15.1425 71.1075 TC 65 -15.1272 71.0767 4 -15.1500 71.0425 TC 80 6 243
1977044S09099 1977 24 SI MM IO:JACK 1977-02-23 00:00:00 TS -15.0939 70.8729 reunion main 1504 1465 O____O___OP_O_ jtwc_sh SH141977 -15.3000 70.9000 -1 -14.3000 70.9000 99 9.90000 -15.3000 70.9000 TC 65 -15.2696 70.8646 4 -15.3000 70.8000 TC 80 7 237
1977044S09099 1977 24 SI MM IO:JACK 1977-02-23 03:00:00 TS -15.2904 70.5876 main 1465 1427 P____P___PP_P_ SH141977 -15.4425 70.6649 -1 -14.6975 70.3554 99 -15.4425 70.6649 TC 65 -15.4272 70.6453 4 -15.4424 70.6074 TC 82 7 232
1977044S09099 1977 24 SI MM IO:JACK 1977-02-23 06:00:00 TS -15.5200 70.3000 reunion main 1427 1388 O____O___OO_O_ jtwc_sh SH141977 -15.6000 70.4000 -1 -15.2000 69.9000 4 9.90000 -15.6000 70.4000 TC 65 -15.6000 70.4000 4 -15.6000 70.4000 TC 85 7 230
1977044S09099 1977 24 SI MM IO:JACK 1977-02-23 09:00:00 TS -15.7593 70.0113 main 1384 1345 P____P___PP_P_ SH141977 -15.7925 70.1150 -1 -15.6498 69.6047 4 -15.7925 70.1150 TC 65 -15.7695 70.0995 4 -15.7925 70.1225 TC 87 8 229
1977044S09099 1977 24 SI MM IO:JACK 1977-02-23 12:00:00 TS -16.0110 69.7145 reunion main 1345 1307 O____O___OP_O_ jtwc_sh SH141977 -16.0000 69.8000 -1 -16.1000 69.4000 99 9.90000 -16.0000 69.8000 TC 65 -15.9551 69.7723 4 -16.0000 69.8000 TC 90 8 230
1977044S09099 1977 24 SI MM IO:JACK 1977-02-23 15:00:00 TS -16.2641 69.3967 main 1303 1265 P____P___PP_P_ SH141977 -16.2000 69.4500 -1 -16.5650 69.1924 99 -16.2000 69.4500 TC 65 -16.1632 69.4338 4 -16.1925 69.4574 TC 92 8 230
1977044S09099 1977 24 SI MM IO:JACK 1977-02-23 18:00:00 TS -16.5200 69.0800 reunion main 1265 1227 O____O___OO_O_ jtwc_sh SH141977 -16.4000 69.1000 -1 -17.0000 69.0000 99 9.90000 -16.4000 69.1000 TC 65 -16.4000 69.1000 4 -16.4000 69.1000 TC 95 8 231
1977044S09099 1977 24 SI MM IO:JACK 1977-02-23 21:00:00 TS -16.7407 68.7907 main 1227 1185 P____P___PP_P_ SH141977 -16.5699 68.7923 -1 -17.3424 68.8147 99 -16.5699 68.7923 TC 65 -16.5937 68.8195 4 -16.6275 68.7349 TC 97 7 228
1977044S09099 1977 24 SI MM IO:JACK 1977-02-24 00:00:00 TS -17.0054 68.5084 reunion main 1185 1154 O____O___OP_O_ jtwc_sh SH141977 -16.8000 68.5000 -1 -17.7000 68.6000 99 9.90000 -16.8000 68.5000 TC 65 -16.8269 68.5420 4 -16.9000 68.4000 TC 100 8 221
1977044S09099 1977 24 SI MM IO:JACK 1977-02-24 03:00:00 TS -17.3452 68.2364 main 1144 1097 P____P___PP_P_ SH141977 -17.1174 68.2220 -1 -18.1700 68.3224 99 -17.1174 68.2220 TC 65 -17.1467 68.2438 4 -17.1747 68.1717 TC 100 10 215
1977044S09099 1977 24 SI MM IO:JACK 1977-02-24 06:00:00 TS -17.8200 67.9200 reunion main 1097 1039 O____O___OO_O_ jtwc_sh SH141977 -17.6000 67.9000 -1 -18.7000 68.0000 4 9.90000 -17.6000 67.9000 TC 65 -17.6000 67.9000 4 -17.6000 67.9000 TC 100 13 212
1977044S09099 1977 24 SI MM IO:JACK 1977-02-24 09:00:00 TS -18.4697 67.5092 main 1036 980 P____P___PP_P_ SH141977 -18.2900 67.4800 -1 -19.2348 67.6870 4 -18.2900 67.4800 TC 65 -18.2511 67.4686 4 -18.2827 67.4304 TC 100 16 211
1977044S09099 1977 24 SI MM IO:JACK 1977-02-24 12:00:00 TS -19.2261 67.0379 reunion main 970 919 O____O___OP_O_ jtwc_sh SH141977 -19.1000 67.0000 -1 -19.8000 67.3000 99 9.90000 -19.1000 67.0000 TC 65 -19.0307 66.9894 4 -19.1000 66.9000 TC 100 18 211
1977044S09099 1977 24 SI MM IO:JACK 1977-02-24 15:00:00 TS -19.9955 66.5380 main 908 865 P____P___PP_P_ SH141977 -19.9000 66.4925 -1 -20.4001 66.7800 99 -19.9000 66.4925 TC 65 -19.8699 66.4902 4 -19.9074 66.4348 TC 97 18 211
1977044S09099 1977 24 SI MM IO:JACK 1977-02-24 18:00:00 TS -20.7600 66.0400 reunion main 855 819 O____O___OO_O_ jtwc_sh SH141977 -20.7000 66.0000 -1 -21.0000 66.2000 99 9.90000 -20.7000 66.0000 TC 65 -20.7000 66.0000 4 -20.7000 66.0000 TC 95 17 211
1977044S09099 1977 24 SI MM IO:JACK 1977-02-24 21:00:00 TS -21.4717 65.6023 main 821 790 P____P___PP_P_ SH141977 -21.4722 65.5918 -1 -21.5423 65.6493 99 -21.4722 65.5918 TC 65 -21.4570 65.5794 4 -21.4148 65.5993 TC 92 16 210
1977044S09099 1977 24 SI MM IO:JACK 1977-02-25 00:00:00 TS -22.1577 65.1741 reunion main 795 766 O____O___OP_O_ jtwc_sh SH141977 -22.2000 65.2000 -1 -22.1000 65.1000 99 9.90000 -22.2000 65.2000 TC 65 -22.1885 65.1705 4 -22.1000 65.2000 TC 90 16 211
1977044S09099 1977 24 SI MM IO:JACK 1977-02-25 03:00:00 TS -22.8400 64.7220 main 766 753 P____P___PP_P_ SH141977 -22.8873 64.7721 -1 -22.7198 64.5494 99 -22.8873 64.7721 TC 65 -22.8757 64.7514 4 -22.8299 64.7649 TC 87 16 213
1977044S09099 1977 24 SI MM IO:JACK 1977-02-25 06:00:00 TS -23.4800 64.2400 reunion main 749 730 O____O___OO_O_ jtwc_sh SH141977 -23.5000 64.3000 -1 -23.4000 64.0000 4 9.90000 -23.5000 64.3000 TC 65 -23.5000 64.3000 4 -23.5000 64.3000 TC 85 15 217
1977044S09099 1977 24 SI MM IO:JACK 1977-02-25 09:00:00 TS -24.0581 63.7146 main 736 720 P____P___PP_P_ SH141977 -24.0299 63.7646 -1 -24.1572 63.4572 4 -24.0299 63.7646 TC 65 -24.0360 63.7645 4 -24.0372 63.8218 TC 80 15 222
1977044S09099 1977 24 SI MM IO:JACK 1977-02-25 12:00:00 TS -24.5821 63.1597 reunion main 727 710 O____O___OP_O_ jtwc_sh SH141977 -24.5000 63.2000 -1 -24.9000 62.9000 99 9.90000 -24.5000 63.2000 TC 65 -24.5106 63.1986 4 -24.5000 63.3000 TC 75 14 226
1977044S09099 1977 24 SI MM IO:JACK 1977-02-25 15:00:00 TS -25.0654 62.5803 main 718 708 P____P___PP_P_ SH141977 -24.9498 62.6494 -1 -25.5152 62.2697 99 -24.9498 62.6494 TC 65 -24.9548 62.6333 4 -24.9576 62.6998 TC 70 14 227
1977044S09099 1977 24 SI MM IO:JACK 1977-02-25 18:00:00 TS -25.5400 62.0200 reunion main 711 711 O____O___OO_O_ jtwc_sh SH141977 -25.4000 62.1000 -1 -26.1000 61.7000 99 9.90000 -25.4000 62.1000 TC 65 -25.4000 62.1000 4 -25.4000 62.1000 TC 65 14 225
1977044S09099 1977 24 SI MM IO:JACK 1977-02-25 21:00:00 TS -26.0555 61.4837 main 736 730 P____P___PP_P_ SH141977 -25.8926 61.5126 -1 -26.7198 61.2600 99 -25.8926 61.5126 TC 50 -25.9082 61.5992 4 -25.8349 61.5621 TC 62 14 219
1977044S09099 1977 24 SI MM IO:JACK 1977-02-26 00:00:00 TS -26.6453 61.0350 reunion main 760 760 O____O___OP_O_ jtwc_sh SH141977 -26.4000 61.0000 -1 -27.4000 61.0000 99 9.90000 -26.4000 61.0000 TC 35 -26.4213 61.1393 4 -26.3000 61.1000 TC 60 15 207
1977044S09099 1977 24 SI MM IO:JACK 1977-02-26 03:00:00 TS -27.3736 60.7430 main 829 829 P____P___PP_P_ SH141977 -26.9089 60.6388 -1 -28.2523 60.9243 99 -26.9089 60.6388 TC 35 -26.9238 60.7346 4 -26.8430 60.7054 TC 52 16 191
1977044S09099 1977 24 SI MM IO:JACK 1977-02-26 06:00:00 TS -28.2000 60.7000 reunion main 912 912 O____O___OO_O_ jtwc_sh SH141977 -27.4000 60.4000 -1 -29.0000 61.0000 3 9.90000 -27.4000 60.4000 TC 35 -27.4000 60.4000 2 -27.4000 60.4000 TC 45 21 171
1977044S09099 1977 24 SI MM IO:JACK 1977-02-26 09:00:00 TS -29.3899 61.1050 main 1049 1049 P____P___PP_P_ SH141977 -27.8356 60.2053 -1 -29.3899 61.1050 3 -27.8356 60.2053 TC -27.8054 60.1815 2 -27.8720 60.1679 TC 15 160
1977044S09099 1977 24 SI MM IO:JACK 1977-02-26 12:00:00 NR -29.6000 61.3000 reunion main 1078 1078 P____O___PP_P_ SH141977 -28.2209 60.0962 -1 -29.6000 61.3000 99 9.90000 -28.2209 60.0962 TC -28.1651 60.0688 2 -28.2833 60.0317 TC 6 136
1977044S09099 1977 24 SI MM IO:JACK 1977-02-26 15:00:00 NR -29.8151 61.5850 main 1110 1110 P____P___PP_P_ SH141977 -28.5614 60.0657 -1 -29.8151 61.5850 99 -28.5614 60.0657 TC -28.4845 60.0513 2 -28.6407 59.9834 TC 7 128
1977044S09099 1977 24 SI MM IO:JACK 1977-02-26 18:00:00 NR -30.0000 61.9000 reunion main 1141 1141 P____O___PP_P_ SH141977 -28.8623 60.1063 -1 -30.0000 61.9000 99 9.90000 -28.8623 60.1063 TC -28.7687 60.1180 2 -28.9506 60.0144 TC 6 129
1977044S09099 1977 24 SI MM IO:JACK 1977-02-26 21:00:00 NR -30.2074 62.1501 main 1173 1173 P____P___PP_P_ SH141977 -29.1287 60.2105 -1 -30.2074 62.1501 99 -29.1287 60.2105 TC -29.0225 60.2579 2 -29.2192 60.1162 TC 6 133
1977044S09099 1977 24 SI MM IO:JACK 1977-02-27 00:00:00 NR -30.4000 62.4000 reunion main 1201 1201 P____O___PP_P_ SH141977 -29.3657 60.3705 -1 -30.4000 62.4000 99 9.90000 -29.3657 60.3705 TC -29.2507 60.4596 2 -29.4528 60.2797 TC 6 128
1977044S09099 1977 24 SI MM IO:JACK 1977-02-27 03:00:00 NR -30.5801 62.7074 main 1234 1234 P____P___PP_P_ SH141977 -29.5781 60.5785 -1 -30.5801 62.7074 99 -29.5781 60.5785 TC -29.4581 60.7115 2 -29.6575 60.4958 TC 6 120
1977044S09099 1977 24 SI MM IO:JACK 1977-02-27 06:00:00 ET -30.7000 63.0000 reunion main 1256 1256 P____O___PP_P_ SH141977 -29.7710 60.8264 -1 -30.7000 63.0000 5 9.90000 -29.7710 60.8264 TC -29.6494 61.0019 2 -29.8395 60.7553 TC 5 112
1977044S09099 1977 24 SI MM IO:JACK 1977-02-27 09:00:00 ET -30.7523 63.1999 main 1275 1269 P____P___PP_P_ SH141977 -29.9494 61.1062 -1 -30.7523 63.1999 5 -29.9494 61.1062 TC -29.8295 61.3193 2 -30.0047 61.0488 TC 3 90
1977044S09099 1977 24 SI MM IO:JACK 1977-02-27 12:00:00 NR -30.7000 63.4000 reunion main 1274 1268 P____O___PP_P_ SH141977 -30.1182 61.4098 -1 -30.7000 63.4000 99 9.90000 -30.1182 61.4098 TC -30.0032 61.6517 2 -30.1596 61.3670 TC 5 64
1977044S09099 1977 24 SI MM IO:JACK 1977-02-27 15:00:00 NR -30.5377 63.7153 main 1268 1263 P____P___PP_P_ SH141977 -30.2824 61.7291 -1 -30.5377 63.7153 99 -30.2824 61.7291 TC -30.1756 61.9874 2 -30.3101 61.7006 TC 7 52
1977044S09099 1977 24 SI MM IO:JACK 1977-02-27 18:00:00 NR -30.3000 64.0000 reunion main 1263 1230 P____O___PP_P_ SH141977 -30.4474 62.0559 -1 -30.3000 64.0000 99 9.90000 -30.4474 62.0559 TC -30.3517 62.3146 2 -30.4628 62.0402 TC 5 295
1977044S09099 1977 24 SI MM IO:JACK 1977-02-27 21:00:00 MX -30.3477 63.2394 main 1225 1225 P____P___PP_P_ SH141977 -30.6181 62.3823 -1 -30.0349 64.1750 99 -30.6181 62.3823 TC -30.5368 62.6213 2 -30.6239 62.3764 TC 7 256
1977044S09099 1977 24 SI MM IO:JACK 1977-02-28 00:00:00 MX -30.4726 63.1971 reunion main 1245 1245 O____O___OP_O_ jtwc_sh SH141977 -30.8000 62.7000 -1 -29.8000 64.2000 99 9.90000 -30.8000 62.7000 TC 35 -30.7363 62.8958 2 -30.8000 62.7000 EX 35 3 169
1977044S09099 1977 24 SI MM IO:JACK 1977-02-28 03:00:00 MX -30.6458 63.3000 main 1259 1259 P____P___PP_P_ SH141977 -30.9839 63.0308 -1 -29.6324 64.0745 99 -30.9839 63.0308 TC 35 -30.9555 63.1261 2 -30.9839 63.0308 EX 35 4 157
1977044S09099 1977 24 SI MM IO:JACK 1977-02-28 06:00:00 MX -30.8800 63.4000 reunion main 1293 1293 O____O___OO_O_ jtwc_sh SH141977 -31.2000 63.3000 -1 -29.6000 63.8000 5 9.90000 -31.2000 63.3000 TC 35 -31.2000 63.3000 2 -31.2000 63.3000 EX 35 5 167
1977044S09099 1977 24 SI MM IO:JACK 1977-02-28 09:00:00 MX -31.1274 63.4264 main 1313 1313 P____P___PP_P_ SH141977 -31.4849 63.4451 -1 -29.7105 63.3558 5 -31.4849 63.4451 TC 35 -31.5032 63.3702 2 -31.4849 63.4451 EX 35 6 0
1977044S09099 1977 24 SI MM IO:JACK 1977-02-28 12:00:00 MX -31.4354 63.3997 reunion main 1343 1343 O____O___OP_O_ jtwc_sh SH141977 -31.8000 63.5000 -1 -30.0000 63.0000 99 9.90000 -31.8000 63.5000 TC 35 -31.8098 63.4243 2 -31.8000 63.5000 EX 35 6 0
1977044S09099 1977 24 SI MM IO:JACK 1977-02-28 15:00:00 MX -31.7742 63.4064 main 1383 1383 P____P___PP_P_ SH141977 -32.1075 63.5151 -1 -30.4546 62.9801 99 -32.1075 63.5151 TC 35 -32.1116 63.4663 2 -32.1075 63.5151 EX 35 7 178
1977044S09099 1977 24 SI MM IO:JACK 1977-02-28 18:00:00 MX -32.1200 63.4400 reunion main 1413 1413 O____O___OO_O_ jtwc_sh SH141977 -32.4000 63.5000 -1 -31.0000 63.2000 99 9.90000 -32.4000 63.5000 TC 35 -32.4000 63.5000 2 -32.4000 63.5000 EX 35 7 171
1977044S09099 1977 24 SI MM IO:JACK 1977-02-28 21:00:00 MX -32.4276 63.5195 main 1448 1448 P____P___PP_P_ SH141977 -32.6575 63.4926 -1 -31.5005 63.5916 99 -32.6575 63.4926 TC 35 -32.6725 63.5284 2 -32.6500 63.4926 EX 35 6 167
1977044S09099 1977 24 SI MM IO:JACK 1977-03-01 00:00:00 MX -32.7260 63.6101 reunion main 1482 1482 O____O___OP_O_ jtwc_sh SH141977 -32.9000 63.5000 -1 -32.0000 64.0000 99 9.90000 -32.9000 63.5000 TC 35 -32.9300 63.5503 2 -32.9000 63.5000 EX 35 6 168
1977044S09099 1977 24 SI MM IO:JACK 1977-03-01 03:00:00 MX -33.0434 63.6746 main 1516 1516 P____P___PP_P_ SH141977 -33.1575 63.5424 -1 -32.5147 64.1734 99 -33.1575 63.5424 TC 35 -33.1725 63.5721 2 -33.2150 63.5424 EX 35 6 170
1977044S09099 1977 24 SI MM IO:JACK 1977-03-01 06:00:00 MX -33.3400 63.7400 reunion main 1547 1547 O____O___OO_O_ jtwc_sh SH141977 -33.4000 63.6000 -1 -33.0000 64.3000 5 9.90000 -33.4000 63.6000 TC 35 -33.4000 63.6000 2 -33.5000 63.6000 EX 35 5 165
1977044S09099 1977 24 SI MM IO:JACK 1977-03-01 09:00:00 MX -33.5700 63.8375 main 1581 1581 P____P___PP_P_ SH141977 -33.6075 63.6500 -1 -33.4227 64.5943 5 -33.6075 63.6500 TC 35 -33.6225 63.6428 2 -33.5900 63.6502 EX 35 5 162
1977044S09099 1977 24 SI MM IO:JACK 1977-03-01 12:00:00 MX -33.8060 63.9185 reunion main 1605 1605 O____O___OP_O_ jtwc_sh SH141977 -33.8000 63.7000 -1 -33.8000 64.8000 99 9.90000 -33.8000 63.7000 TC 35 -33.8300 63.6925 2 -33.8000 63.7000 EX 35 6 171
1977044S09099 1977 24 SI MM IO:JACK 1977-03-01 15:00:00 MX -34.1390 63.9413 main 1634 1634 P____P___PP_P_ SH141977 -34.0075 63.7500 -1 -34.1575 64.7106 99 -34.0075 63.7500 TC 35 -34.0225 63.7459 2 -34.5000 63.7498 EX 35 7 0
1977044S09099 1977 24 SI MM IO:JACK 1977-03-01 18:00:00 MX -34.4600 63.9400 reunion main 1642 1631 O____O___OO_O_ jtwc_sh SH141977 -34.2000 63.8000 -1 -34.5000 64.5000 99 9.90000 -34.2000 63.8000 TC 35 -34.2000 63.8000 2 -35.2000 63.8000 EX 35 5 183
1977044S09099 1977 24 SI MM IO:JACK 1977-03-01 21:00:00 MX -34.6354 63.8960 main 1631 1621 P____P___PP_P_ SH141977 -34.3575 63.8500 -1 -34.8425 64.3129 99 -34.3575 63.8500 TC 35 -34.1872 63.6168 2 -35.4325 63.8502 EX 35 3 194
1977044S09099 1977 24 SI MM IO:JACK 1977-03-02 00:00:00 MX -34.7553 63.8567 reunion main 1610 1610 O____O___OP_O_ jtwc_sh SH141977 -34.5000 63.9000 -1 -35.2000 64.2000 99 9.90000 -34.5000 63.9000 TC 35 -34.1878 63.4693 2 -35.5000 63.9000 EX 35 2 203
1977044S09099 1977 24 SI MM IO:JACK 1977-03-02 03:00:00 MX -34.8410 63.7857 main 1612 1575 P____P___PP_P_ SH141977 -34.5512 63.8110 -1 -35.5900 64.2493 99 -34.5512 63.8110 TC 35 -34.3447 63.5362 2 -35.5424 63.7529 EX 35 4 158
1977044S09099 1977 24 SI MM IO:JACK 1977-03-02 06:00:00 MX -35.1059 64.0235 reunion main 1575 1494 O____O___OO_O_ jtwc_sh SH141977 -34.8000 64.0000 -1 -36.0000 64.4000 5 9.90000 -34.8000 64.0000 TC 35 -34.8000 64.0000 2 -35.8000 64.0000 EX 35 13 135
1977044S09099 1977 24 SI MM IO:JACK 1977-03-02 09:00:00 MX -35.7305 64.8799 main 1492 1363 P________PP_P_ SH141977 -35.3782 64.6898 -1 5 -35.3782 64.6898 TC 30 -35.6497 65.0031 2 -36.5160 65.1371 EX 32 25 132
1977044S09099 1977 24 SI MM IO:JACK 1977-03-02 12:00:00 MX -36.7788 66.3212 main 1350 1202 O________OP_O_ jtwc_sh SH141977 -36.4000 66.0000 -1 -36.4000 66.0000 TC 25 -36.8152 66.4848 2 -37.5000 66.8000 EX 30 36 132
1977044S09099 1977 24 SI MM IO:JACK 1977-03-02 15:00:00 MX -38.1233 68.2142 main 1190 1038 P________PP_P_ SH141977 -37.8858 67.9754 -1 -37.8858 67.9754 TC 25 -38.1727 68.3278 2 -38.5489 68.5783 EX 30 43 131
1977044S09099 1977 24 SI MM IO:JACK 1977-03-02 18:00:00 MX -39.6000 70.4000 main 1028 O________OO_O_ jtwc_sh SH141977 -39.6000 70.4000 -1 -39.6000 70.4000 TC 25 -39.6000 70.4000 6 -39.6000 70.4000 EX 30 45 131

IBTrACS Databaseについて

本データベースは、米国NOAAが公開する1842年以降の世界の熱帯低気圧のベストトラックデータアーカイブInternational Best Track Archive for Climate Stewardship (IBTrACS)を、ウェブで閲覧しやすい形式に変換したものです。

最終更新日:2021-11-26